sensor_id;sensor_type;location;lat;lon;timestamp;P1;durP1;ratioP1;P2;durP2;ratioP2
67162;SDS011;54092;53.088;8.850;2023-10-08T00:00:13;7.28;;;3.35;;
67162;SDS011;54092;53.088;8.850;2023-10-08T00:02:57;4.93;;;2.75;;
67162;SDS011;54092;53.088;8.850;2023-10-08T00:05:22;6.72;;;3.00;;
67162;SDS011;54092;53.088;8.850;2023-10-08T00:07:48;8.10;;;3.30;;
67162;SDS011;54092;53.088;8.850;2023-10-08T00:10:13;6.72;;;3.13;;
67162;SDS011;54092;53.088;8.850;2023-10-08T00:12:39;6.57;;;3.03;;
67162;SDS011;54092;53.088;8.850;2023-10-08T00:15:05;6.13;;;3.03;;
67162;SDS011;54092;53.088;8.850;2023-10-08T00:17:35;6.57;;;3.53;;
67162;SDS011;54092;53.088;8.850;2023-10-08T00:20:00;9.23;;;3.20;;
67162;SDS011;54092;53.088;8.850;2023-10-08T00:22:28;8.57;;;3.10;;
67162;SDS011;54092;53.088;8.850;2023-10-08T00:25:00;10.90;;;3.63;;
67162;SDS011;54092;53.088;8.850;2023-10-08T00:27:26;8.93;;;3.30;;
67162;SDS011;54092;53.088;8.850;2023-10-08T00:29:52;13.50;;;3.70;;
67162;SDS011;54092;53.088;8.850;2023-10-08T00:32:17;17.15;;;3.85;;
67162;SDS011;54092;53.088;8.850;2023-10-08T00:34:43;12.88;;;4.13;;
67162;SDS011;54092;53.088;8.850;2023-10-08T00:37:10;10.05;;;3.80;;
67162;SDS011;54092;53.088;8.850;2023-10-08T00:39:39;11.40;;;3.38;;
67162;SDS011;54092;53.088;8.850;2023-10-08T00:42:06;7.50;;;3.03;;
67162;SDS011;54092;53.088;8.850;2023-10-08T00:44:33;9.98;;;3.70;;
67162;SDS011;54092;53.088;8.850;2023-10-08T00:47:16;7.55;;;3.20;;
67162;SDS011;54092;53.088;8.850;2023-10-08T00:49:42;11.40;;;3.40;;
67162;SDS011;54092;53.088;8.850;2023-10-08T00:52:08;9.20;;;3.38;;
67162;SDS011;54092;53.088;8.850;2023-10-08T00:54:38;9.88;;;3.30;;
67162;SDS011;54092;53.088;8.850;2023-10-08T00:57:22;7.80;;;2.65;;
67162;SDS011;54092;53.088;8.850;2023-10-08T00:59:50;7.00;;;3.25;;
67162;SDS011;54092;53.088;8.850;2023-10-08T01:02:21;13.25;;;3.75;;
67162;SDS011;54092;53.088;8.850;2023-10-08T01:04:51;9.50;;;2.95;;
67162;SDS011;54092;53.088;8.850;2023-10-08T01:07:19;7.00;;;2.60;;
67162;SDS011;54092;53.088;8.850;2023-10-08T01:09:45;7.20;;;2.78;;
67162;SDS011;54092;53.088;8.850;2023-10-08T01:12:22;10.57;;;3.55;;
67162;SDS011;54092;53.088;8.850;2023-10-08T01:14:55;7.85;;;3.75;;
67162;SDS011;54092;53.088;8.850;2023-10-08T01:17:29;8.18;;;2.92;;
67162;SDS011;54092;53.088;8.850;2023-10-08T01:19:57;13.45;;;3.30;;
67162;SDS011;54092;53.088;8.850;2023-10-08T01:22:44;10.35;;;3.22;;
67162;SDS011;54092;53.088;8.850;2023-10-08T01:25:10;13.52;;;3.97;;
67162;SDS011;54092;53.088;8.850;2023-10-08T01:27:45;12.15;;;3.65;;
67162;SDS011;54092;53.088;8.850;2023-10-08T01:30:11;12.60;;;3.20;;
67162;SDS011;54092;53.088;8.850;2023-10-08T01:32:43;14.00;;;3.30;;
67162;SDS011;54092;53.088;8.850;2023-10-08T01:35:09;13.80;;;3.50;;
67162;SDS011;54092;53.088;8.850;2023-10-08T01:37:48;16.63;;;3.67;;
67162;SDS011;54092;53.088;8.850;2023-10-08T01:40:15;11.68;;;3.00;;
67162;SDS011;54092;53.088;8.850;2023-10-08T01:42:41;14.13;;;3.22;;
67162;SDS011;54092;53.088;8.850;2023-10-08T01:45:07;10.85;;;2.95;;
67162;SDS011;54092;53.088;8.850;2023-10-08T01:47:38;9.35;;;2.47;;
67162;SDS011;54092;53.088;8.850;2023-10-08T01:50:04;11.98;;;2.90;;
67162;SDS011;54092;53.088;8.850;2023-10-08T01:52:32;9.53;;;2.73;;
67162;SDS011;54092;53.088;8.850;2023-10-08T01:54:59;7.75;;;2.40;;
67162;SDS011;54092;53.088;8.850;2023-10-08T01:57:25;7.20;;;2.50;;
67162;SDS011;54092;53.088;8.850;2023-10-08T01:59:50;7.85;;;2.55;;
67162;SDS011;54092;53.088;8.850;2023-10-08T02:02:16;5.72;;;2.20;;
67162;SDS011;54092;53.088;8.850;2023-10-08T02:04:42;8.23;;;2.90;;
67162;SDS011;54092;53.088;8.850;2023-10-08T02:07:08;5.35;;;2.05;;
67162;SDS011;54092;53.088;8.850;2023-10-08T02:09:37;9.13;;;2.10;;
67162;SDS011;54092;53.088;8.850;2023-10-08T02:12:03;4.93;;;2.00;;
67162;SDS011;54092;53.088;8.850;2023-10-08T02:14:29;5.28;;;1.80;;
67162;SDS011;54092;53.088;8.850;2023-10-08T02:16:57;6.85;;;2.22;;
67162;SDS011;54092;53.088;8.850;2023-10-08T02:19:26;7.05;;;2.08;;
67162;SDS011;54092;53.088;8.850;2023-10-08T02:21:55;7.93;;;2.45;;
67162;SDS011;54092;53.088;8.850;2023-10-08T02:24:22;11.88;;;2.40;;
67162;SDS011;54092;53.088;8.850;2023-10-08T02:26:49;5.88;;;2.10;;
67162;SDS011;54092;53.088;8.850;2023-10-08T02:29:19;6.70;;;2.00;;
67162;SDS011;54092;53.088;8.850;2023-10-08T02:31:46;7.75;;;2.17;;
67162;SDS011;54092;53.088;8.850;2023-10-08T02:34:12;9.38;;;2.30;;
67162;SDS011;54092;53.088;8.850;2023-10-08T02:36:39;6.05;;;2.15;;
67162;SDS011;54092;53.088;8.850;2023-10-08T02:39:05;5.00;;;2.15;;
67162;SDS011;54092;53.088;8.850;2023-10-08T02:41:39;11.48;;;2.17;;
67162;SDS011;54092;53.088;8.850;2023-10-08T02:44:06;7.43;;;2.15;;
67162;SDS011;54092;53.088;8.850;2023-10-08T02:46:37;6.60;;;1.95;;
67162;SDS011;54092;53.088;8.850;2023-10-08T02:49:07;5.20;;;2.30;;
67162;SDS011;54092;53.088;8.850;2023-10-08T02:51:36;5.43;;;2.25;;
67162;SDS011;54092;53.088;8.850;2023-10-08T02:54:03;10.63;;;2.38;;
67162;SDS011;54092;53.088;8.850;2023-10-08T02:56:31;9.45;;;2.25;;
67162;SDS011;54092;53.088;8.850;2023-10-08T02:58:57;9.95;;;2.50;;
67162;SDS011;54092;53.088;8.850;2023-10-08T03:01:25;6.45;;;2.65;;
67162;SDS011;54092;53.088;8.850;2023-10-08T03:03:50;9.38;;;2.80;;
67162;SDS011;54092;53.088;8.850;2023-10-08T03:06:27;7.05;;;2.70;;
67162;SDS011;54092;53.088;8.850;2023-10-08T03:08:52;8.52;;;3.20;;
67162;SDS011;54092;53.088;8.850;2023-10-08T03:11:18;9.57;;;3.42;;
67162;SDS011;54092;53.088;8.850;2023-10-08T03:13:44;11.15;;;3.33;;
67162;SDS011;54092;53.088;8.850;2023-10-08T03:16:16;9.23;;;3.97;;
67162;SDS011;54092;53.088;8.850;2023-10-08T03:18:46;7.80;;;3.92;;
67162;SDS011;54092;53.088;8.850;2023-10-08T03:21:15;10.38;;;4.22;;
67162;SDS011;54092;53.088;8.850;2023-10-08T03:24:01;8.80;;;3.88;;
67162;SDS011;54092;53.088;8.850;2023-10-08T03:26:31;9.35;;;4.28;;
67162;SDS011;54092;53.088;8.850;2023-10-08T03:29:01;14.73;;;4.55;;
67162;SDS011;54092;53.088;8.850;2023-10-08T03:31:39;10.05;;;4.63;;
67162;SDS011;54092;53.088;8.850;2023-10-08T03:34:12;13.38;;;4.68;;
67162;SDS011;54092;53.088;8.850;2023-10-08T03:36:39;10.73;;;4.60;;
67162;SDS011;54092;53.088;8.850;2023-10-08T03:39:11;11.95;;;5.10;;
67162;SDS011;54092;53.088;8.850;2023-10-08T03:41:40;14.10;;;5.00;;
67162;SDS011;54092;53.088;8.850;2023-10-08T03:44:06;11.90;;;4.93;;
67162;SDS011;54092;53.088;8.850;2023-10-08T03:46:39;13.80;;;5.43;;
67162;SDS011;54092;53.088;8.850;2023-10-08T03:49:08;13.20;;;5.53;;
67162;SDS011;54092;53.088;8.850;2023-10-08T03:51:46;15.23;;;5.47;;
67162;SDS011;54092;53.088;8.850;2023-10-08T03:54:13;12.95;;;5.72;;
67162;SDS011;54092;53.088;8.850;2023-10-08T03:56:39;18.95;;;5.95;;
67162;SDS011;54092;53.088;8.850;2023-10-08T03:59:10;14.73;;;5.07;;
67162;SDS011;54092;53.088;8.850;2023-10-08T04:02:00;13.50;;;6.00;;
67162;SDS011;54092;53.088;8.850;2023-10-08T04:04:40;13.65;;;5.25;;
67162;SDS011;54092;53.088;8.850;2023-10-08T04:07:22;13.93;;;5.95;;
67162;SDS011;54092;53.088;8.850;2023-10-08T04:09:50;12.40;;;5.20;;
67162;SDS011;54092;53.088;8.850;2023-10-08T04:14:57;14.02;;;5.07;;
67162;SDS011;54092;53.088;8.850;2023-10-08T04:17:22;11.77;;;4.47;;
67162;SDS011;54092;53.088;8.850;2023-10-08T04:19:48;14.50;;;4.95;;
67162;SDS011;54092;53.088;8.850;2023-10-08T04:22:13;13.25;;;5.00;;
67162;SDS011;54092;53.088;8.850;2023-10-08T04:27:09;11.73;;;4.10;;
67162;SDS011;54092;53.088;8.850;2023-10-08T04:29:34;11.32;;;4.20;;
67162;SDS011;54092;53.088;8.850;2023-10-08T04:32:01;9.73;;;3.95;;
67162;SDS011;54092;53.088;8.850;2023-10-08T04:34:32;11.75;;;4.40;;
67162;SDS011;54092;53.088;8.850;2023-10-08T04:36:59;11.98;;;4.20;;
67162;SDS011;54092;53.088;8.850;2023-10-08T04:39:29;12.18;;;4.35;;
67162;SDS011;54092;53.088;8.850;2023-10-08T04:41:58;16.17;;;3.90;;
67162;SDS011;54092;53.088;8.850;2023-10-08T04:44:30;10.23;;;4.15;;
67162;SDS011;54092;53.088;8.850;2023-10-08T04:46:57;13.25;;;3.97;;
67162;SDS011;54092;53.088;8.850;2023-10-08T04:49:29;10.73;;;3.78;;
67162;SDS011;54092;53.088;8.850;2023-10-08T04:51:56;13.07;;;4.65;;
67162;SDS011;54092;53.088;8.850;2023-10-08T04:54:27;10.05;;;4.50;;
67162;SDS011;54092;53.088;8.850;2023-10-08T04:56:59;9.23;;;3.67;;
67162;SDS011;54092;53.088;8.850;2023-10-08T04:59:27;11.25;;;4.35;;
67162;SDS011;54092;53.088;8.850;2023-10-08T05:01:59;12.48;;;4.20;;
67162;SDS011;54092;53.088;8.850;2023-10-08T05:04:44;10.68;;;3.90;;
67162;SDS011;54092;53.088;8.850;2023-10-08T05:07:42;10.93;;;4.07;;
67162;SDS011;54092;53.088;8.850;2023-10-08T05:10:10;10.93;;;3.80;;
67162;SDS011;54092;53.088;8.850;2023-10-08T05:12:37;11.10;;;4.25;;
67162;SDS011;54092;53.088;8.850;2023-10-08T05:15:03;8.30;;;3.88;;
67162;SDS011;54092;53.088;8.850;2023-10-08T05:17:39;11.07;;;4.40;;
67162;SDS011;54092;53.088;8.850;2023-10-08T05:20:23;13.13;;;4.60;;
67162;SDS011;54092;53.088;8.850;2023-10-08T05:23:11;14.63;;;4.85;;
67162;SDS011;54092;53.088;8.850;2023-10-08T05:25:50;10.20;;;4.25;;
67162;SDS011;54092;53.088;8.850;2023-10-08T05:28:35;11.60;;;4.10;;
67162;SDS011;54092;53.088;8.850;2023-10-08T05:31:11;12.35;;;4.30;;
67162;SDS011;54092;53.088;8.850;2023-10-08T05:33:38;13.45;;;4.15;;
67162;SDS011;54092;53.088;8.850;2023-10-08T05:36:23;14.38;;;4.20;;
67162;SDS011;54092;53.088;8.850;2023-10-08T05:39:15;12.80;;;4.38;;
67162;SDS011;54092;53.088;8.850;2023-10-08T05:42:04;10.02;;;3.75;;
67162;SDS011;54092;53.088;8.850;2023-10-08T05:44:41;20.75;;;4.93;;
67162;SDS011;54092;53.088;8.850;2023-10-08T05:47:15;12.43;;;3.97;;
67162;SDS011;54092;53.088;8.850;2023-10-08T05:49:41;11.82;;;4.05;;
67162;SDS011;54092;53.088;8.850;2023-10-08T05:52:19;17.67;;;5.15;;
67162;SDS011;54092;53.088;8.850;2023-10-08T05:55:06;13.73;;;4.85;;
67162;SDS011;54092;53.088;8.850;2023-10-08T05:57:50;10.07;;;4.25;;
67162;SDS011;54092;53.088;8.850;2023-10-08T06:00:27;14.98;;;5.28;;
67162;SDS011;54092;53.088;8.850;2023-10-08T06:02:53;11.75;;;4.50;;
67162;SDS011;54092;53.088;8.850;2023-10-08T06:05:56;12.02;;;5.15;;
67162;SDS011;54092;53.088;8.850;2023-10-08T06:08:42;14.73;;;4.78;;
67162;SDS011;54092;53.088;8.850;2023-10-08T06:11:20;14.63;;;4.47;;
67162;SDS011;54092;53.088;8.850;2023-10-08T06:14:06;15.27;;;4.75;;
67162;SDS011;54092;53.088;8.850;2023-10-08T06:17:01;15.43;;;5.15;;
67162;SDS011;54092;53.088;8.850;2023-10-08T06:19:49;13.23;;;4.47;;
67162;SDS011;54092;53.088;8.850;2023-10-08T06:22:17;13.77;;;4.77;;
67162;SDS011;54092;53.088;8.850;2023-10-08T06:24:44;15.80;;;5.13;;
67162;SDS011;54092;53.088;8.850;2023-10-08T06:27:09;11.23;;;4.53;;
67162;SDS011;54092;53.088;8.850;2023-10-08T06:29:41;11.80;;;4.47;;
67162;SDS011;54092;53.088;8.850;2023-10-08T06:32:09;13.45;;;4.03;;
67162;SDS011;54092;53.088;8.850;2023-10-08T06:34:37;10.57;;;4.35;;
67162;SDS011;54092;53.088;8.850;2023-10-08T06:37:05;11.05;;;4.10;;
67162;SDS011;54092;53.088;8.850;2023-10-08T06:39:31;8.80;;;3.15;;
67162;SDS011;54092;53.088;8.850;2023-10-08T06:42:12;8.43;;;3.33;;
67162;SDS011;54092;53.088;8.850;2023-10-08T06:44:39;12.82;;;3.58;;
67162;SDS011;54092;53.088;8.850;2023-10-08T06:47:07;10.68;;;3.20;;
67162;SDS011;54092;53.088;8.850;2023-10-08T06:49:34;8.57;;;3.20;;
67162;SDS011;54092;53.088;8.850;2023-10-08T06:52:01;7.63;;;3.50;;
67162;SDS011;54092;53.088;8.850;2023-10-08T06:54:27;8.23;;;3.30;;
67162;SDS011;54092;53.088;8.850;2023-10-08T06:56:55;10.32;;;3.17;;
67162;SDS011;54092;53.088;8.850;2023-10-08T06:59:21;9.05;;;3.17;;
67162;SDS011;54092;53.088;8.850;2023-10-08T07:01:50;8.63;;;2.75;;
67162;SDS011;54092;53.088;8.850;2023-10-08T07:04:17;11.52;;;3.20;;
67162;SDS011;54092;53.088;8.850;2023-10-08T07:06:46;8.65;;;3.05;;
67162;SDS011;54092;53.088;8.850;2023-10-08T07:09:13;11.35;;;3.05;;
67162;SDS011;54092;53.088;8.850;2023-10-08T07:11:48;8.50;;;3.10;;
67162;SDS011;54092;53.088;8.850;2023-10-08T07:14:21;8.60;;;2.83;;
67162;SDS011;54092;53.088;8.850;2023-10-08T07:17:00;9.25;;;2.40;;
67162;SDS011;54092;53.088;8.850;2023-10-08T07:19:26;8.07;;;2.92;;
67162;SDS011;54092;53.088;8.850;2023-10-08T07:21:59;7.00;;;2.65;;
67162;SDS011;54092;53.088;8.850;2023-10-08T07:24:29;7.05;;;2.80;;
67162;SDS011;54092;53.088;8.850;2023-10-08T07:26:56;8.70;;;3.08;;
67162;SDS011;54092;53.088;8.850;2023-10-08T07:29:21;8.00;;;2.42;;
67162;SDS011;54092;53.088;8.850;2023-10-08T07:31:47;6.55;;;2.40;;
67162;SDS011;54092;53.088;8.850;2023-10-08T07:34:14;10.00;;;2.47;;
67162;SDS011;54092;53.088;8.850;2023-10-08T07:36:41;8.10;;;2.30;;
67162;SDS011;54092;53.088;8.850;2023-10-08T07:39:12;7.90;;;2.30;;
67162;SDS011;54092;53.088;8.850;2023-10-08T07:41:51;7.30;;;2.30;;
67162;SDS011;54092;53.088;8.850;2023-10-08T07:44:19;6.07;;;2.30;;
67162;SDS011;54092;53.088;8.850;2023-10-08T07:46:51;7.70;;;2.10;;
67162;SDS011;54092;53.088;8.850;2023-10-08T07:49:19;6.55;;;2.17;;
67162;SDS011;54092;53.088;8.850;2023-10-08T07:51:45;8.80;;;2.10;;
67162;SDS011;54092;53.088;8.850;2023-10-08T07:54:20;6.50;;;2.15;;
67162;SDS011;54092;53.088;8.850;2023-10-08T07:56:48;6.38;;;1.92;;
67162;SDS011;54092;53.088;8.850;2023-10-08T07:59:14;8.35;;;2.00;;
67162;SDS011;54092;53.088;8.850;2023-10-08T08:01:41;7.28;;;1.70;;
67162;SDS011;54092;53.088;8.850;2023-10-08T08:04:16;5.00;;;1.83;;
67162;SDS011;54092;53.088;8.850;2023-10-08T08:06:49;4.00;;;1.70;;
67162;SDS011;54092;53.088;8.850;2023-10-08T08:09:15;8.68;;;1.90;;
67162;SDS011;54092;53.088;8.850;2023-10-08T08:11:44;6.18;;;1.60;;
67162;SDS011;54092;53.088;8.850;2023-10-08T08:14:14;5.67;;;1.90;;
67162;SDS011;54092;53.088;8.850;2023-10-08T08:16:44;5.63;;;1.70;;
67162;SDS011;54092;53.088;8.850;2023-10-08T08:19:13;6.80;;;1.83;;
67162;SDS011;54092;53.088;8.850;2023-10-08T08:24:11;8.25;;;2.08;;
67162;SDS011;54092;53.088;8.850;2023-10-08T08:26:54;7.63;;;1.90;;
67162;SDS011;54092;53.088;8.850;2023-10-08T08:29:36;6.82;;;1.83;;
67162;SDS011;54092;53.088;8.850;2023-10-08T08:32:12;6.30;;;1.60;;
67162;SDS011;54092;53.088;8.850;2023-10-08T08:34:46;5.97;;;1.75;;
67162;SDS011;54092;53.088;8.850;2023-10-08T08:37:15;5.68;;;1.88;;
67162;SDS011;54092;53.088;8.850;2023-10-08T08:39:41;8.25;;;1.73;;
67162;SDS011;54092;53.088;8.850;2023-10-08T08:42:07;8.70;;;1.70;;
67162;SDS011;54092;53.088;8.850;2023-10-08T08:44:35;6.68;;;1.85;;
67162;SDS011;54092;53.088;8.850;2023-10-08T08:47:04;5.68;;;1.50;;
67162;SDS011;54092;53.088;8.850;2023-10-08T08:49:35;5.07;;;1.35;;
67162;SDS011;54092;53.088;8.850;2023-10-08T08:52:04;5.30;;;1.73;;
67162;SDS011;54092;53.088;8.850;2023-10-08T08:54:30;5.97;;;1.60;;
67162;SDS011;54092;53.088;8.850;2023-10-08T08:56:56;7.32;;;1.77;;
67162;SDS011;54092;53.088;8.850;2023-10-08T08:59:27;6.78;;;1.70;;
67162;SDS011;54092;53.088;8.850;2023-10-08T09:01:55;7.93;;;2.27;;
67162;SDS011;54092;53.088;8.850;2023-10-08T09:04:29;6.95;;;2.00;;
67162;SDS011;54092;53.088;8.850;2023-10-08T09:06:56;5.25;;;1.90;;
67162;SDS011;54092;53.088;8.850;2023-10-08T09:09:30;6.45;;;2.03;;
67162;SDS011;54092;53.088;8.850;2023-10-08T09:11:57;9.52;;;1.92;;
67162;SDS011;54092;53.088;8.850;2023-10-08T09:14:23;5.05;;;1.65;;
67162;SDS011;54092;53.088;8.850;2023-10-08T09:16:55;9.65;;;1.90;;
67162;SDS011;54092;53.088;8.850;2023-10-08T09:19:22;11.07;;;2.38;;
67162;SDS011;54092;53.088;8.850;2023-10-08T09:22:01;9.90;;;2.30;;
67162;SDS011;54092;53.088;8.850;2023-10-08T09:24:34;5.47;;;1.80;;
67162;SDS011;54092;53.088;8.850;2023-10-08T09:27:04;10.45;;;1.73;;
67162;SDS011;54092;53.088;8.850;2023-10-08T09:29:34;6.78;;;1.67;;
67162;SDS011;54092;53.088;8.850;2023-10-08T09:32:09;5.20;;;1.70;;
67162;SDS011;54092;53.088;8.850;2023-10-08T09:34:36;5.53;;;1.85;;
67162;SDS011;54092;53.088;8.850;2023-10-08T09:37:02;7.80;;;2.10;;
67162;SDS011;54092;53.088;8.850;2023-10-08T09:39:30;3.92;;;1.70;;
67162;SDS011;54092;53.088;8.850;2023-10-08T09:42:01;5.82;;;1.90;;
67162;SDS011;54092;53.088;8.850;2023-10-08T09:44:28;6.85;;;1.83;;
67162;SDS011;54092;53.088;8.850;2023-10-08T09:47:04;6.43;;;1.90;;
67162;SDS011;54092;53.088;8.850;2023-10-08T09:49:32;6.15;;;2.20;;
67162;SDS011;54092;53.088;8.850;2023-10-08T09:52:11;4.15;;;1.80;;
67162;SDS011;54092;53.088;8.850;2023-10-08T09:54:48;5.40;;;1.67;;
67162;SDS011;54092;53.088;8.850;2023-10-08T09:57:21;4.03;;;1.73;;
67162;SDS011;54092;53.088;8.850;2023-10-08T09:59:50;9.40;;;2.60;;
67162;SDS011;54092;53.088;8.850;2023-10-08T10:02:16;5.22;;;2.20;;
67162;SDS011;54092;53.088;8.850;2023-10-08T10:04:43;5.32;;;2.00;;
67162;SDS011;54092;53.088;8.850;2023-10-08T10:07:10;5.45;;;1.75;;
67162;SDS011;54092;53.088;8.850;2023-10-08T10:09:42;8.30;;;1.67;;
67162;SDS011;54092;53.088;8.850;2023-10-08T10:12:10;6.82;;;2.17;;
67162;SDS011;54092;53.088;8.850;2023-10-08T10:14:43;4.80;;;1.60;;
67162;SDS011;54092;53.088;8.850;2023-10-08T10:17:29;5.65;;;1.65;;
67162;SDS011;54092;53.088;8.850;2023-10-08T10:20:00;4.05;;;1.50;;
67162;SDS011;54092;53.088;8.850;2023-10-08T10:22:27;7.75;;;1.90;;
67162;SDS011;54092;53.088;8.850;2023-10-08T10:24:58;3.90;;;1.35;;
67162;SDS011;54092;53.088;8.850;2023-10-08T10:27:29;5.43;;;1.38;;
67162;SDS011;54092;53.088;8.850;2023-10-08T10:30:02;5.25;;;1.40;;
67162;SDS011;54092;53.088;8.850;2023-10-08T10:32:34;7.80;;;1.90;;
67162;SDS011;54092;53.088;8.850;2023-10-08T10:35:00;7.60;;;1.83;;
67162;SDS011;54092;53.088;8.850;2023-10-08T10:37:28;4.57;;;1.80;;
67162;SDS011;54092;53.088;8.850;2023-10-08T10:40:05;8.40;;;1.58;;
67162;SDS011;54092;53.088;8.850;2023-10-08T10:42:37;4.93;;;1.50;;
67162;SDS011;54092;53.088;8.850;2023-10-08T10:45:17;5.43;;;1.60;;
67162;SDS011;54092;53.088;8.850;2023-10-08T10:48:01;4.60;;;1.52;;
67162;SDS011;54092;53.088;8.850;2023-10-08T10:50:38;5.60;;;1.70;;
67162;SDS011;54092;53.088;8.850;2023-10-08T10:53:25;5.05;;;1.50;;
67162;SDS011;54092;53.088;8.850;2023-10-08T10:55:52;4.38;;;1.75;;
67162;SDS011;54092;53.088;8.850;2023-10-08T10:58:34;5.80;;;1.75;;
67162;SDS011;54092;53.088;8.850;2023-10-08T11:01:06;6.88;;;1.40;;
67162;SDS011;54092;53.088;8.850;2023-10-08T11:03:51;5.45;;;1.60;;
67162;SDS011;54092;53.088;8.850;2023-10-08T11:06:18;6.25;;;1.92;;
67162;SDS011;54092;53.088;8.850;2023-10-08T11:08:51;6.68;;;1.55;;
67162;SDS011;54092;53.088;8.850;2023-10-08T11:11:18;7.57;;;1.77;;
67162;SDS011;54092;53.088;8.850;2023-10-08T11:13:52;4.57;;;1.60;;
67162;SDS011;54092;53.088;8.850;2023-10-08T11:16:25;6.82;;;1.60;;
67162;SDS011;54092;53.088;8.850;2023-10-08T11:18:50;5.03;;;1.58;;
67162;SDS011;54092;53.088;8.850;2023-10-08T11:21:22;5.85;;;1.70;;
67162;SDS011;54092;53.088;8.850;2023-10-08T11:23:49;7.18;;;1.50;;
67162;SDS011;54092;53.088;8.850;2023-10-08T11:26:20;6.43;;;1.73;;
67162;SDS011;54092;53.088;8.850;2023-10-08T11:28:56;9.05;;;1.70;;
67162;SDS011;54092;53.088;8.850;2023-10-08T11:33:58;5.47;;;1.40;;
67162;SDS011;54092;53.088;8.850;2023-10-08T11:36:24;4.75;;;1.40;;
67162;SDS011;54092;53.088;8.850;2023-10-08T11:39:08;3.95;;;1.58;;
67162;SDS011;54092;53.088;8.850;2023-10-08T11:41:36;4.22;;;1.60;;
67162;SDS011;54092;53.088;8.850;2023-10-08T11:44:17;6.22;;;1.65;;
67162;SDS011;54092;53.088;8.850;2023-10-08T11:46:45;6.53;;;2.10;;
67162;SDS011;54092;53.088;8.850;2023-10-08T11:49:16;5.00;;;1.52;;
67162;SDS011;54092;53.088;8.850;2023-10-08T11:51:50;4.05;;;1.55;;
67162;SDS011;54092;53.088;8.850;2023-10-08T11:54:17;7.50;;;1.70;;
67162;SDS011;54092;53.088;8.850;2023-10-08T11:56:45;3.95;;;1.55;;
67162;SDS011;54092;53.088;8.850;2023-10-08T11:59:12;4.63;;;1.48;;
67162;SDS011;54092;53.088;8.850;2023-10-08T12:01:38;8.02;;;1.58;;
67162;SDS011;54092;53.088;8.850;2023-10-08T12:04:07;5.20;;;1.67;;
67162;SDS011;54092;53.088;8.850;2023-10-08T12:06:38;5.75;;;1.60;;
67162;SDS011;54092;53.088;8.850;2023-10-08T12:09:09;4.05;;;1.50;;
67162;SDS011;54092;53.088;8.850;2023-10-08T12:11:37;3.45;;;1.30;;
67162;SDS011;54092;53.088;8.850;2023-10-08T12:14:04;5.13;;;1.65;;
67162;SDS011;54092;53.088;8.850;2023-10-08T12:16:30;5.13;;;1.65;;
67162;SDS011;54092;53.088;8.850;2023-10-08T12:19:00;5.38;;;1.77;;
67162;SDS011;54092;53.088;8.850;2023-10-08T12:21:26;3.63;;;1.45;;
67162;SDS011;54092;53.088;8.850;2023-10-08T12:23:56;5.45;;;1.63;;
67162;SDS011;54092;53.088;8.850;2023-10-08T12:26:29;6.05;;;2.05;;
67162;SDS011;54092;53.088;8.850;2023-10-08T12:28:56;5.90;;;1.90;;
67162;SDS011;54092;53.088;8.850;2023-10-08T12:31:22;6.90;;;1.70;;
67162;SDS011;54092;53.088;8.850;2023-10-08T12:33:49;6.40;;;1.70;;
67162;SDS011;54092;53.088;8.850;2023-10-08T12:36:19;4.90;;;1.70;;
67162;SDS011;54092;53.088;8.850;2023-10-08T12:41:13;7.82;;;1.92;;
67162;SDS011;54092;53.088;8.850;2023-10-08T12:43:40;6.35;;;1.88;;
67162;SDS011;54092;53.088;8.850;2023-10-08T12:46:08;5.78;;;1.58;;
67162;SDS011;54092;53.088;8.850;2023-10-08T12:48:41;4.60;;;1.50;;
67162;SDS011;54092;53.088;8.850;2023-10-08T12:51:09;5.20;;;1.50;;
67162;SDS011;54092;53.088;8.850;2023-10-08T12:53:37;5.07;;;1.60;;
67162;SDS011;54092;53.088;8.850;2023-10-08T12:56:06;6.47;;;1.63;;
67162;SDS011;54092;53.088;8.850;2023-10-08T12:58:40;8.15;;;2.03;;
67162;SDS011;54092;53.088;8.850;2023-10-08T13:01:12;8.82;;;1.85;;
67162;SDS011;54092;53.088;8.850;2023-10-08T13:03:38;6.32;;;1.50;;
67162;SDS011;54092;53.088;8.850;2023-10-08T13:06:09;5.32;;;2.15;;
67162;SDS011;54092;53.088;8.850;2023-10-08T13:08:46;7.50;;;1.80;;
67162;SDS011;54092;53.088;8.850;2023-10-08T13:11:12;4.20;;;1.50;;
67162;SDS011;54092;53.088;8.850;2023-10-08T13:13:38;7.85;;;2.30;;
67162;SDS011;54092;53.088;8.850;2023-10-08T13:16:04;5.13;;;1.80;;
67162;SDS011;54092;53.088;8.850;2023-10-08T13:18:35;5.30;;;1.52;;
67162;SDS011;54092;53.088;8.850;2023-10-08T13:21:07;6.90;;;1.90;;
67162;SDS011;54092;53.088;8.850;2023-10-08T13:23:34;9.25;;;2.05;;
67162;SDS011;54092;53.088;8.850;2023-10-08T13:26:01;8.32;;;1.95;;
67162;SDS011;54092;53.088;8.850;2023-10-08T13:28:29;5.45;;;2.30;;
67162;SDS011;54092;53.088;8.850;2023-10-08T13:30:58;10.20;;;1.70;;
67162;SDS011;54092;53.088;8.850;2023-10-08T13:33:35;8.65;;;1.70;;
67162;SDS011;54092;53.088;8.850;2023-10-08T13:36:05;3.25;;;1.35;;
67162;SDS011;54092;53.088;8.850;2023-10-08T13:38:35;4.75;;;2.25;;
67162;SDS011;54092;53.088;8.850;2023-10-08T13:41:01;7.43;;;1.92;;
67162;SDS011;54092;53.088;8.850;2023-10-08T13:43:32;4.60;;;1.70;;
67162;SDS011;54092;53.088;8.850;2023-10-08T13:46:07;4.43;;;1.45;;
67162;SDS011;54092;53.088;8.850;2023-10-08T13:48:38;6.03;;;1.67;;
67162;SDS011;54092;53.088;8.850;2023-10-08T13:51:05;7.32;;;1.92;;
67162;SDS011;54092;53.088;8.850;2023-10-08T13:53:36;5.60;;;2.13;;
67162;SDS011;54092;53.088;8.850;2023-10-08T13:56:02;8.45;;;2.17;;
67162;SDS011;54092;53.088;8.850;2023-10-08T13:58:32;5.32;;;1.73;;
67162;SDS011;54092;53.088;8.850;2023-10-08T14:01:05;6.32;;;1.70;;
67162;SDS011;54092;53.088;8.850;2023-10-08T14:03:43;7.88;;;1.83;;
67162;SDS011;54092;53.088;8.850;2023-10-08T14:06:21;5.95;;;1.50;;
67162;SDS011;54092;53.088;8.850;2023-10-08T14:08:47;5.45;;;1.77;;
67162;SDS011;54092;53.088;8.850;2023-10-08T14:11:22;5.57;;;1.92;;
67162;SDS011;54092;53.088;8.850;2023-10-08T14:13:51;6.93;;;1.85;;
67162;SDS011;54092;53.088;8.850;2023-10-08T14:16:18;6.45;;;1.75;;
67162;SDS011;54092;53.088;8.850;2023-10-08T14:18:48;5.43;;;1.70;;
67162;SDS011;54092;53.088;8.850;2023-10-08T14:21:19;6.10;;;1.60;;
67162;SDS011;54092;53.088;8.850;2023-10-08T14:23:52;6.15;;;1.88;;
67162;SDS011;54092;53.088;8.850;2023-10-08T14:26:17;5.67;;;1.87;;
67162;SDS011;54092;53.088;8.850;2023-10-08T14:31:20;7.53;;;1.90;;
67162;SDS011;54092;53.088;8.850;2023-10-08T14:33:50;5.13;;;1.80;;
67162;SDS011;54092;53.088;8.850;2023-10-08T14:36:30;4.95;;;1.77;;
67162;SDS011;54092;53.088;8.850;2023-10-08T14:39:16;7.57;;;2.13;;
67162;SDS011;54092;53.088;8.850;2023-10-08T14:42:01;5.30;;;1.80;;
67162;SDS011;54092;53.088;8.850;2023-10-08T14:44:45;3.33;;;1.85;;
67162;SDS011;54092;53.088;8.850;2023-10-08T14:47:11;10.38;;;2.83;;
67162;SDS011;54092;53.088;8.850;2023-10-08T14:49:38;7.18;;;1.80;;
67162;SDS011;54092;53.088;8.850;2023-10-08T14:52:04;4.40;;;1.80;;
67162;SDS011;54092;53.088;8.850;2023-10-08T14:54:30;7.90;;;2.17;;
67162;SDS011;54092;53.088;8.850;2023-10-08T14:56:56;7.22;;;1.90;;
67162;SDS011;54092;53.088;8.850;2023-10-08T14:59:22;5.22;;;1.63;;
67162;SDS011;54092;53.088;8.850;2023-10-08T15:01:48;3.65;;;1.73;;
67162;SDS011;54092;53.088;8.850;2023-10-08T15:04:15;6.45;;;1.80;;
67162;SDS011;54092;53.088;8.850;2023-10-08T15:06:43;6.25;;;1.55;;
67162;SDS011;54092;53.088;8.850;2023-10-08T15:09:09;9.15;;;2.45;;
67162;SDS011;54092;53.088;8.850;2023-10-08T15:11:34;5.70;;;1.88;;
67162;SDS011;54092;53.088;8.850;2023-10-08T15:14:01;7.97;;;2.05;;
67162;SDS011;54092;53.088;8.850;2023-10-08T15:16:34;6.10;;;2.17;;
67162;SDS011;54092;53.088;8.850;2023-10-08T15:19:04;8.70;;;2.00;;